sensor_id;sensor_type;location;lat;lon;timestamp;pressure;altitude;pressure_sealevel;temperature;humidity
32492;BME280;20605;49.742;18.802;2023-04-15T00:01:28;96466.73;;;7.90;100.00
32492;BME280;20605;49.742;18.802;2023-04-15T00:03:54;96467.66;;;7.89;100.00
32492;BME280;20605;49.742;18.802;2023-04-15T00:06:21;96465.45;;;7.87;100.00
32492;BME280;20605;49.742;18.802;2023-04-15T00:08:47;96465.73;;;7.85;100.00
32492;BME280;20605;49.742;18.802;2023-04-15T00:11:13;96467.79;;;7.81;100.00
32492;BME280;20605;49.742;18.802;2023-04-15T00:13:39;96473.01;;;7.77;100.00
32492;BME280;20605;49.742;18.802;2023-04-15T00:16:07;96474.83;;;7.75;100.00
32492;BME280;20605;49.742;18.802;2023-04-15T00:18:34;96474.94;;;7.72;100.00
32492;BME280;20605;49.742;18.802;2023-04-15T00:21:00;96476.62;;;7.73;100.00
32492;BME280;20605;49.742;18.802;2023-04-15T00:23:27;96482.69;;;7.73;100.00
32492;BME280;20605;49.742;18.802;2023-04-15T00:25:53;96486.27;;;7.70;100.00
32492;BME280;20605;49.742;18.802;2023-04-15T00:28:19;96481.70;;;7.67;100.00
32492;BME280;20605;49.742;18.802;2023-04-15T00:30:46;96481.53;;;7.63;100.00
32492;BME280;20605;49.742;18.802;2023-04-15T00:33:12;96487.41;;;7.59;100.00
32492;BME280;20605;49.742;18.802;2023-04-15T00:35:38;96487.23;;;7.55;100.00
32492;BME280;20605;49.742;18.802;2023-04-15T00:38:05;96488.40;;;7.51;100.00
32492;BME280;20605;49.742;18.802;2023-04-15T00:40:32;96487.92;;;7.50;100.00
32492;BME280;20605;49.742;18.802;2023-04-15T00:42:58;96487.61;;;7.50;100.00
32492;BME280;20605;49.742;18.802;2023-04-15T00:45:25;96487.97;;;7.49;100.00
32492;BME280;20605;49.742;18.802;2023-04-15T00:47:54;96488.89;;;7.48;100.00
32492;BME280;20605;49.742;18.802;2023-04-15T00:50:20;96494.52;;;7.45;100.00
32492;BME280;20605;49.742;18.802;2023-04-15T00:52:47;96500.73;;;7.41;100.00
32492;BME280;20605;49.742;18.802;2023-04-15T00:55:15;96502.89;;;7.35;100.00
32492;BME280;20605;49.742;18.802;2023-04-15T00:57:41;96508.97;;;7.29;100.00
32492;BME280;20605;49.742;18.802;2023-04-15T01:00:07;96513.88;;;7.23;100.00
32492;BME280;20605;49.742;18.802;2023-04-15T01:02:34;96516.35;;;7.17;100.00
32492;BME280;20605;49.742;18.802;2023-04-15T01:05:01;96523.80;;;7.12;100.00
32492;BME280;20605;49.742;18.802;2023-04-15T01:07:28;96526.05;;;7.07;100.00
32492;BME280;20605;49.742;18.802;2023-04-15T01:09:54;96529.89;;;7.02;100.00
32492;BME280;20605;49.742;18.802;2023-04-15T01:12:20;96535.81;;;6.96;100.00
32492;BME280;20605;49.742;18.802;2023-04-15T01:14:46;96531.75;;;6.89;100.00
32492;BME280;20605;49.742;18.802;2023-04-15T01:17:12;96526.90;;;6.75;100.00
32492;BME280;20605;49.742;18.802;2023-04-15T01:19:44;96528.47;;;6.57;100.00
32492;BME280;20605;49.742;18.802;2023-04-15T01:22:11;96531.39;;;6.43;100.00
32492;BME280;20605;49.742;18.802;2023-04-15T01:24:37;96530.95;;;6.32;100.00
32492;BME280;20605;49.742;18.802;2023-04-15T01:27:04;96533.60;;;6.20;100.00
32492;BME280;20605;49.742;18.802;2023-04-15T01:29:31;96535.85;;;6.10;100.00
32492;BME280;20605;49.742;18.802;2023-04-15T01:31:57;96532.55;;;6.05;100.00
32492;BME280;20605;49.742;18.802;2023-04-15T01:34:25;96533.69;;;5.97;100.00
32492;BME280;20605;49.742;18.802;2023-04-15T01:36:52;96533.88;;;5.92;100.00
32492;BME280;20605;49.742;18.802;2023-04-15T01:39:26;96539.64;;;5.83;100.00
32492;BME280;20605;49.742;18.802;2023-04-15T01:41:55;96540.27;;;5.74;100.00
32492;BME280;20605;49.742;18.802;2023-04-15T01:44:24;96539.30;;;5.67;100.00
32492;BME280;20605;49.742;18.802;2023-04-15T01:46:50;96541.59;;;5.66;100.00
32492;BME280;20605;49.742;18.802;2023-04-15T01:49:15;96544.66;;;5.61;100.00
32492;BME280;20605;49.742;18.802;2023-04-15T01:51:41;96553.18;;;5.59;100.00
32492;BME280;20605;49.742;18.802;2023-04-15T01:54:07;96558.23;;;5.57;100.00
32492;BME280;20605;49.742;18.802;2023-04-15T01:56:33;96554.77;;;5.46;100.00
32492;BME280;20605;49.742;18.802;2023-04-15T01:58:58;96557.64;;;5.37;100.00
32492;BME280;20605;49.742;18.802;2023-04-15T02:01:29;96561.08;;;5.32;100.00
32492;BME280;20605;49.742;18.802;2023-04-15T02:04:00;96559.52;;;5.27;100.00
32492;BME280;20605;49.742;18.802;2023-04-15T02:06:26;96566.11;;;5.20;100.00
32492;BME280;20605;49.742;18.802;2023-04-15T02:08:54;96572.49;;;5.14;100.00
32492;BME280;20605;49.742;18.802;2023-04-15T02:11:20;96581.48;;;5.07;100.00
32492;BME280;20605;49.742;18.802;2023-04-15T02:13:45;96587.05;;;4.99;100.00
32492;BME280;20605;49.742;18.802;2023-04-15T02:16:16;96587.92;;;4.93;100.00
32492;BME280;20605;49.742;18.802;2023-04-15T02:18:45;96587.64;;;4.90;100.00
32492;BME280;20605;49.742;18.802;2023-04-15T02:21:11;96594.37;;;4.89;100.00
32492;BME280;20605;49.742;18.802;2023-04-15T02:23:37;96597.08;;;4.91;100.00
32492;BME280;20605;49.742;18.802;2023-04-15T02:26:03;96602.94;;;4.90;100.00
32492;BME280;20605;49.742;18.802;2023-04-15T02:28:31;96606.41;;;4.89;100.00
32492;BME280;20605;49.742;18.802;2023-04-15T02:30:57;96612.54;;;4.92;100.00
32492;BME280;20605;49.742;18.802;2023-04-15T02:33:24;96610.77;;;4.94;100.00
32492;BME280;20605;49.742;18.802;2023-04-15T02:35:50;96605.59;;;4.95;100.00
32492;BME280;20605;49.742;18.802;2023-04-15T02:38:17;96601.92;;;4.97;100.00
32492;BME280;20605;49.742;18.802;2023-04-15T02:40:43;96602.21;;;4.98;100.00
32492;BME280;20605;49.742;18.802;2023-04-15T02:43:09;96600.58;;;4.95;100.00
32492;BME280;20605;49.742;18.802;2023-04-15T02:45:35;96609.07;;;4.87;100.00
32492;BME280;20605;49.742;18.802;2023-04-15T02:48:02;96609.66;;;4.78;100.00
32492;BME280;20605;49.742;18.802;2023-04-15T02:50:30;96611.29;;;4.69;100.00
32492;BME280;20605;49.742;18.802;2023-04-15T02:52:56;96607.40;;;4.60;100.00
32492;BME280;20605;49.742;18.802;2023-04-15T02:55:22;96608.95;;;4.54;100.00
32492;BME280;20605;49.742;18.802;2023-04-15T02:57:48;96609.85;;;4.52;100.00
32492;BME280;20605;49.742;18.802;2023-04-15T03:00:14;96608.89;;;4.50;100.00
32492;BME280;20605;49.742;18.802;2023-04-15T03:02:43;96611.14;;;4.49;100.00
32492;BME280;20605;49.742;18.802;2023-04-15T03:05:13;96611.65;;;4.50;100.00
32492;BME280;20605;49.742;18.802;2023-04-15T03:07:44;96610.70;;;4.53;100.00
32492;BME280;20605;49.742;18.802;2023-04-15T03:10:10;96612.19;;;4.55;100.00
32492;BME280;20605;49.742;18.802;2023-04-15T03:12:36;96611.24;;;4.51;100.00
32492;BME280;20605;49.742;18.802;2023-04-15T03:15:02;96609.52;;;4.45;100.00
32492;BME280;20605;49.742;18.802;2023-04-15T03:17:36;96610.17;;;4.40;100.00
32492;BME280;20605;49.742;18.802;2023-04-15T03:20:04;96606.89;;;4.35;100.00
32492;BME280;20605;49.742;18.802;2023-04-15T03:22:31;96610.08;;;4.31;100.00
32492;BME280;20605;49.742;18.802;2023-04-15T03:24:58;96610.48;;;4.29;100.00
32492;BME280;20605;49.742;18.802;2023-04-15T03:27:25;96612.02;;;4.29;100.00
32492;BME280;20605;49.742;18.802;2023-04-15T03:29:52;96609.84;;;4.27;100.00
32492;BME280;20605;49.742;18.802;2023-04-15T03:32:20;96605.98;;;4.23;100.00
32492;BME280;20605;49.742;18.802;2023-04-15T03:34:46;96603.95;;;4.22;100.00
32492;BME280;20605;49.742;18.802;2023-04-15T03:37:12;96606.11;;;4.18;100.00
32492;BME280;20605;49.742;18.802;2023-04-15T03:39:38;96607.44;;;4.13;100.00
32492;BME280;20605;49.742;18.802;2023-04-15T03:42:03;96616.67;;;4.08;100.00
32492;BME280;20605;49.742;18.802;2023-04-15T03:44:30;96619.00;;;4.04;100.00
32492;BME280;20605;49.742;18.802;2023-04-15T03:46:55;96619.49;;;4.05;100.00
32492;BME280;20605;49.742;18.802;2023-04-15T03:49:21;96623.02;;;4.08;100.00
32492;BME280;20605;49.742;18.802;2023-04-15T03:51:47;96632.52;;;4.13;100.00
32492;BME280;20605;49.742;18.802;2023-04-15T03:54:13;96636.48;;;4.13;100.00
32492;BME280;20605;49.742;18.802;2023-04-15T03:56:39;96642.32;;;4.06;100.00
32492;BME280;20605;49.742;18.802;2023-04-15T03:59:05;96645.63;;;3.97;100.00
32492;BME280;20605;49.742;18.802;2023-04-15T04:01:31;96645.32;;;3.89;100.00
32492;BME280;20605;49.742;18.802;2023-04-15T04:03:57;96643.26;;;3.83;100.00
32492;BME280;20605;49.742;18.802;2023-04-15T04:06:23;96639.15;;;3.82;100.00
32492;BME280;20605;49.742;18.802;2023-04-15T04:08:49;96641.75;;;3.81;100.00
32492;BME280;20605;49.742;18.802;2023-04-15T04:11:14;96635.73;;;3.82;100.00
32492;BME280;20605;49.742;18.802;2023-04-15T04:13:40;96635.83;;;3.84;100.00
32492;BME280;20605;49.742;18.802;2023-04-15T04:16:06;96635.95;;;3.87;100.00
32492;BME280;20605;49.742;18.802;2023-04-15T04:18:32;96640.16;;;3.96;100.00
32492;BME280;20605;49.742;18.802;2023-04-15T04:20:58;96638.02;;;4.07;100.00
32492;BME280;20605;49.742;18.802;2023-04-15T04:23:25;96640.66;;;4.10;100.00
32492;BME280;20605;49.742;18.802;2023-04-15T04:25:50;96642.34;;;4.12;100.00
32492;BME280;20605;49.742;18.802;2023-04-15T04:28:17;96638.09;;;4.10;100.00
32492;BME280;20605;49.742;18.802;2023-04-15T04:30:43;96639.04;;;4.13;100.00
32492;BME280;20605;49.742;18.802;2023-04-15T04:33:08;96640.52;;;4.16;100.00
32492;BME280;20605;49.742;18.802;2023-04-15T04:35:34;96641.88;;;4.10;100.00
32492;BME280;20605;49.742;18.802;2023-04-15T04:38:02;96643.80;;;4.08;100.00
32492;BME280;20605;49.742;18.802;2023-04-15T04:40:29;96644.13;;;4.09;100.00
32492;BME280;20605;49.742;18.802;2023-04-15T04:42:55;96647.77;;;4.08;100.00
32492;BME280;20605;49.742;18.802;2023-04-15T04:45:21;96649.71;;;4.06;100.00
32492;BME280;20605;49.742;18.802;2023-04-15T04:47:47;96652.65;;;4.05;100.00
32492;BME280;20605;49.742;18.802;2023-04-15T04:50:12;96651.98;;;4.04;100.00
32492;BME280;20605;49.742;18.802;2023-04-15T04:52:38;96650.21;;;4.06;100.00
32492;BME280;20605;49.742;18.802;2023-04-15T04:55:04;96650.96;;;4.11;100.00
32492;BME280;20605;49.742;18.802;2023-04-15T04:57:30;96658.35;;;4.24;100.00
32492;BME280;20605;49.742;18.802;2023-04-15T04:59:56;96658.91;;;4.37;100.00
32492;BME280;20605;49.742;18.802;2023-04-15T05:02:21;96658.67;;;4.52;100.00
32492;BME280;20605;49.742;18.802;2023-04-15T05:04:47;96660.02;;;4.79;100.00
32492;BME280;20605;49.742;18.802;2023-04-15T05:07:14;96660.38;;;5.26;100.00
32492;BME280;20605;49.742;18.802;2023-04-15T05:09:40;96660.42;;;6.09;100.00
32492;BME280;20605;49.742;18.802;2023-04-15T05:12:06;96665.06;;;6.86;100.00
32492;BME280;20605;49.742;18.802;2023-04-15T05:14:33;96665.79;;;7.60;100.00
32492;BME280;20605;49.742;18.802;2023-04-15T05:16:59;96670.15;;;8.38;100.00
32492;BME280;20605;49.742;18.802;2023-04-15T05:19:25;96672.13;;;9.25;100.00
32492;BME280;20605;49.742;18.802;2023-04-15T05:21:51;96668.06;;;9.98;100.00
32492;BME280;20605;49.742;18.802;2023-04-15T05:24:17;96664.60;;;10.82;100.00
32492;BME280;20605;49.742;18.802;2023-04-15T05:26:43;96667.45;;;11.73;100.00
32492;BME280;20605;49.742;18.802;2023-04-15T05:29:08;96664.77;;;12.40;100.00
32492;BME280;20605;49.742;18.802;2023-04-15T05:31:34;96670.13;;;12.86;100.00
32492;BME280;20605;49.742;18.802;2023-04-15T05:34:01;96671.68;;;13.38;100.00
32492;BME280;20605;49.742;18.802;2023-04-15T05:36:28;96667.20;;;13.99;100.00
32492;BME280;20605;49.742;18.802;2023-04-15T05:38:54;96665.89;;;14.67;100.00
32492;BME280;20605;49.742;18.802;2023-04-15T05:41:20;96665.98;;;15.23;100.00
32492;BME280;20605;49.742;18.802;2023-04-15T05:43:46;96664.71;;;15.83;100.00
32492;BME280;20605;49.742;18.802;2023-04-15T05:46:11;96667.11;;;16.76;100.00
32492;BME280;20605;49.742;18.802;2023-04-15T05:48:37;96664.46;;;17.38;100.00
32492;BME280;20605;49.742;18.802;2023-04-15T05:51:03;96670.09;;;18.08;100.00
32492;BME280;20605;49.742;18.802;2023-04-15T05:53:29;96669.05;;;18.36;100.00
32492;BME280;20605;49.742;18.802;2023-04-15T05:55:55;96671.55;;;18.52;100.00
32492;BME280;20605;49.742;18.802;2023-04-15T05:58:21;96671.75;;;18.76;100.00
32492;BME280;20605;49.742;18.802;2023-04-15T06:00:47;96671.88;;;19.27;100.00
32492;BME280;20605;49.742;18.802;2023-04-15T06:03:13;96673.02;;;19.77;98.26
32492;BME280;20605;49.742;18.802;2023-04-15T06:05:38;96668.73;;;19.88;94.26
32492;BME280;20605;49.742;18.802;2023-04-15T06:08:05;96669.10;;;19.75;93.32
32492;BME280;20605;49.742;18.802;2023-04-15T06:10:31;96669.33;;;19.69;89.87
32492;BME280;20605;49.742;18.802;2023-04-15T06:13:02;96667.49;;;19.82;91.25
32492;BME280;20605;49.742;18.802;2023-04-15T06:15:29;96669.30;;;20.03;88.88
32492;BME280;20605;49.742;18.802;2023-04-15T06:17:55;96672.70;;;20.35;89.58
32492;BME280;20605;49.742;18.802;2023-04-15T06:20:20;96671.14;;;20.76;89.54
32492;BME280;20605;49.742;18.802;2023-04-15T06:22:46;96678.02;;;21.56;89.57
32492;BME280;20605;49.742;18.802;2023-04-15T06:25:12;96675.73;;;22.29;84.56
32492;BME280;20605;49.742;18.802;2023-04-15T06:27:39;96672.85;;;22.66;83.61
32492;BME280;20605;49.742;18.802;2023-04-15T06:30:05;96671.14;;;23.22;83.32
32492;BME280;20605;49.742;18.802;2023-04-15T06:32:32;96670.39;;;24.02;82.60
32492;BME280;20605;49.742;18.802;2023-04-15T06:34:57;96672.33;;;24.76;80.10
32492;BME280;20605;49.742;18.802;2023-04-15T06:37:23;96672.25;;;25.08;74.90
32492;BME280;20605;49.742;18.802;2023-04-15T06:39:49;96669.52;;;25.09;76.38
32492;BME280;20605;49.742;18.802;2023-04-15T06:42:15;96671.48;;;25.80;78.53
32492;BME280;20605;49.742;18.802;2023-04-15T06:44:41;96669.68;;;26.82;75.44
32492;BME280;20605;49.742;18.802;2023-04-15T06:47:07;96664.05;;;27.19;70.21
32492;BME280;20605;49.742;18.802;2023-04-15T06:49:34;96671.45;;;26.98;69.74
32492;BME280;20605;49.742;18.802;2023-04-15T06:52:00;96672.95;;;26.93;66.51
32492;BME280;20605;49.742;18.802;2023-04-15T06:54:26;96679.38;;;26.55;61.82
32492;BME280;20605;49.742;18.802;2023-04-15T06:56:52;96676.27;;;25.07;57.61
32492;BME280;20605;49.742;18.802;2023-04-15T06:59:18;96673.31;;;23.90;59.43
32492;BME280;20605;49.742;18.802;2023-04-15T07:01:43;96671.73;;;23.06;58.24
32492;BME280;20605;49.742;18.802;2023-04-15T07:04:10;96676.94;;;22.24;58.45
32492;BME280;20605;49.742;18.802;2023-04-15T07:06:36;96675.18;;;21.65;61.09
32492;BME280;20605;49.742;18.802;2023-04-15T07:09:02;96673.36;;;21.92;61.71
32492;BME280;20605;49.742;18.802;2023-04-15T07:11:29;96676.86;;;22.14;61.95
32492;BME280;20605;49.742;18.802;2023-04-15T07:13:57;96683.21;;;21.74;61.66
32492;BME280;20605;49.742;18.802;2023-04-15T07:16:23;96686.45;;;20.45;61.25
32492;BME280;20605;49.742;18.802;2023-04-15T07:18:49;96684.31;;;19.25;63.62
32492;BME280;20605;49.742;18.802;2023-04-15T07:21:14;96683.08;;;19.60;65.70
32492;BME280;20605;49.742;18.802;2023-04-15T07:23:41;96680.80;;;20.93;65.58
32492;BME280;20605;49.742;18.802;2023-04-15T07:26:08;96679.94;;;20.78;63.09
32492;BME280;20605;49.742;18.802;2023-04-15T07:28:35;96679.10;;;20.00;62.73
32492;BME280;20605;49.742;18.802;2023-04-15T07:31:01;96679.65;;;19.90;65.08
32492;BME280;20605;49.742;18.802;2023-04-15T07:33:27;96682.80;;;20.08;64.83
32492;BME280;20605;49.742;18.802;2023-04-15T07:35:52;96684.44;;;20.10;63.40
32492;BME280;20605;49.742;18.802;2023-04-15T07:38:18;96681.57;;;20.36;64.82
32492;BME280;20605;49.742;18.802;2023-04-15T07:40:45;96687.48;;;21.56;65.42
32492;BME280;20605;49.742;18.802;2023-04-15T07:43:11;96682.77;;;22.72;61.21
32492;BME280;20605;49.742;18.802;2023-04-15T07:45:38;96686.84;;;23.06;61.12
32492;BME280;20605;49.742;18.802;2023-04-15T07:48:04;96682.64;;;23.17;58.85
32492;BME280;20605;49.742;18.802;2023-04-15T07:50:31;96682.16;;;22.87;59.64
32492;BME280;20605;49.742;18.802;2023-04-15T07:52:57;96685.13;;;23.59;58.06
32492;BME280;20605;49.742;18.802;2023-04-15T07:55:23;96688.17;;;24.14;57.13
32492;BME280;20605;49.742;18.802;2023-04-15T07:57:49;96687.74;;;24.43;55.49
32492;BME280;20605;49.742;18.802;2023-04-15T08:00:15;96689.95;;;24.02;54.81
32492;BME280;20605;49.742;18.802;2023-04-15T08:02:42;96690.66;;;23.76;55.28
32492;BME280;20605;49.742;18.802;2023-04-15T08:05:09;96691.96;;;23.25;53.91
32492;BME280;20605;49.742;18.802;2023-04-15T08:07:36;96694.48;;;22.98;53.96
32492;BME280;20605;49.742;18.802;2023-04-15T08:10:03;96687.41;;;22.66;54.61
32492;BME280;20605;49.742;18.802;2023-04-15T08:12:29;96685.46;;;23.10;55.64
32492;BME280;20605;49.742;18.802;2023-04-15T08:14:54;96688.44;;;23.35;55.14
32492;BME280;20605;49.742;18.802;2023-04-15T08:17:22;96691.96;;;22.35;54.19
32492;BME280;20605;49.742;18.802;2023-04-15T08:19:48;96693.77;;;21.35;56.07
32492;BME280;20605;49.742;18.802;2023-04-15T08:22:14;96697.85;;;20.77;57.36
32492;BME280;20605;49.742;18.802;2023-04-15T08:24:40;96687.08;;;21.53;58.81
32492;BME280;20605;49.742;18.802;2023-04-15T08:27:05;96680.98;;;22.63;56.55
32492;BME280;20605;49.742;18.802;2023-04-15T08:29:33;96676.52;;;24.04;58.69
32492;BME280;20605;49.742;18.802;2023-04-15T08:31:59;96681.05;;;25.56;56.11
32492;BME280;20605;49.742;18.802;2023-04-15T08:34:28;96680.32;;;26.46;54.41
32492;BME280;20605;49.742;18.802;2023-04-15T08:36:55;96677.05;;;27.66;53.25
32492;BME280;20605;49.742;18.802;2023-04-15T08:39:21;96676.30;;;27.33;50.92
32492;BME280;20605;49.742;18.802;2023-04-15T08:41:51;96677.20;;;27.25;50.50
32492;BME280;20605;49.742;18.802;2023-04-15T08:44:19;96681.85;;;27.27;48.84
32492;BME280;20605;49.742;18.802;2023-04-15T08:46:46;96681.50;;;26.18;47.57
32492;BME280;20605;49.742;18.802;2023-04-15T08:49:14;96686.61;;;25.29;49.39
32492;BME280;20605;49.742;18.802;2023-04-15T08:51:41;96686.32;;;24.23;49.32
32492;BME280;20605;49.742;18.802;2023-04-15T08:54:08;96689.95;;;23.48;48.43
32492;BME280;20605;49.742;18.802;2023-04-15T08:56:35;96686.88;;;22.53;49.72
32492;BME280;20605;49.742;18.802;2023-04-15T08:59:02;96692.57;;;21.55;49.24
32492;BME280;20605;49.742;18.802;2023-04-15T09:01:28;96694.13;;;20.21;50.61
32492;BME280;20605;49.742;18.802;2023-04-15T09:03:55;96694.76;;;19.43;52.45
32492;BME280;20605;49.742;18.802;2023-04-15T09:06:22;96693.62;;;18.62;53.53
32492;BME280;20605;49.742;18.802;2023-04-15T09:08:49;96700.24;;;17.77;54.73
32492;BME280;20605;49.742;18.802;2023-04-15T09:11:17;96704.10;;;16.99;56.88
32492;BME280;20605;49.742;18.802;2023-04-15T09:13:44;96708.06;;;16.50;58.43
32492;BME280;20605;49.742;18.802;2023-04-15T09:16:12;96707.55;;;16.17;59.71
32492;BME280;20605;49.742;18.802;2023-04-15T09:18:38;96704.67;;;16.30;61.08
32492;BME280;20605;49.742;18.802;2023-04-15T09:21:09;96702.14;;;17.52;61.69
32492;BME280;20605;49.742;18.802;2023-04-15T09:23:59;96710.03;;;18.46;59.20
32492;BME280;20605;49.742;18.802;2023-04-15T09:26:36;96713.94;;;18.26;58.40
32492;BME280;20605;49.742;18.802;2023-04-15T09:29:09;96708.59;;;19.01;58.85
32492;BME280;20605;49.742;18.802;2023-04-15T09:31:39;96705.81;;;18.92;57.82
32492;BME280;20605;49.742;18.802;2023-04-15T09:34:08;96709.39;;;18.34;57.82
32492;BME280;20605;49.742;18.802;2023-04-15T09:39:14;96709.70;;;17.09;59.02
32492;BME280;20605;49.742;18.802;2023-04-15T09:41:43;96710.73;;;16.30;59.45
32492;BME280;20605;49.742;18.802;2023-04-15T09:44:24;96712.34;;;15.69;61.27
32492;BME280;20605;49.742;18.802;2023-04-15T10:02:17;96720.38;;;15.64;66.05
32492;BME280;20605;49.742;18.802;2023-04-15T10:05:58;96723.34;;;15.82;67.29
32492;BME280;20605;49.742;18.802;2023-04-15T10:11:27;96720.65;;;15.92;69.60
32492;BME280;20605;49.742;18.802;2023-04-15T10:15:14;96728.04;;;16.16;69.45
32492;BME280;20605;49.742;18.802;2023-04-15T10:19:06;96723.82;;;16.44;68.75
32492;BME280;20605;49.742;18.802;2023-04-15T10:22:37;96720.45;;;16.53;68.18
32492;BME280;20605;49.742;18.802;2023-04-15T10:25:07;96723.01;;;16.52;67.73
32492;BME280;20605;49.742;18.802;2023-04-15T10:27:35;96722.22;;;16.56;67.00
32492;BME280;20605;49.742;18.802;2023-04-15T10:30:01;96726.08;;;16.49;67.11
32492;BME280;20605;49.742;18.802;2023-04-15T10:32:28;96727.42;;;16.40;66.86
32492;BME280;20605;49.742;18.802;2023-04-15T10:34:56;96726.73;;;16.30;67.31
32492;BME280;20605;49.742;18.802;2023-04-15T10:37:36;96728.01;;;16.22;67.50
32492;BME280;20605;49.742;18.802;2023-04-15T10:42:54;96723.52;;;16.11;69.09
32492;BME280;20605;49.742;18.802;2023-04-15T10:45:21;96725.93;;;15.97;68.98
32492;BME280;20605;49.742;18.802;2023-04-15T10:47:51;96724.02;;;15.89;69.13
32492;BME280;20605;49.742;18.802;2023-04-15T10:50:19;96725.54;;;15.75;67.65
32492;BME280;20605;49.742;18.802;2023-04-15T10:52:44;96728.32;;;15.32;65.12
32492;BME280;20605;49.742;18.802;2023-04-15T10:55:14;96728.20;;;14.84;65.52
32492;BME280;20605;49.742;18.802;2023-04-15T10:57:44;96726.20;;;14.59;66.51
32492;BME280;20605;49.742;18.802;2023-04-15T11:00:14;96727.80;;;14.45;66.60
32492;BME280;20605;49.742;18.802;2023-04-15T11:05:15;96730.90;;;14.26;68.05
32492;BME280;20605;49.742;18.802;2023-04-15T11:07:55;96729.88;;;14.36;67.62
32492;BME280;20605;49.742;18.802;2023-04-15T11:12:52;96730.81;;;14.41;67.49
32492;BME280;20605;49.742;18.802;2023-04-15T11:15:34;96733.64;;;14.38;67.63
32492;BME280;20605;49.742;18.802;2023-04-15T11:18:26;96730.43;;;14.33;67.50
32492;BME280;20605;49.742;18.802;2023-04-15T11:20:54;96730.39;;;14.29;68.23
32492;BME280;20605;49.742;18.802;2023-04-15T11:23:35;96727.69;;;14.44;68.85
32492;BME280;20605;49.742;18.802;2023-04-15T11:26:03;96725.50;;;14.72;68.82
32492;BME280;20605;49.742;18.802;2023-04-15T11:28:47;96732.15;;;15.01;68.12
32492;BME280;20605;49.742;18.802;2023-04-15T11:31:17;96723.82;;;15.03;67.69
32492;BME280;20605;49.742;18.802;2023-04-15T11:33:45;96717.80;;;15.20;68.80
32492;BME280;20605;49.742;18.802;2023-04-15T11:36:12;96721.44;;;15.46;67.90
32492;BME280;20605;49.742;18.802;2023-04-15T11:38:41;96723.08;;;15.57;68.20
32492;BME280;20605;49.742;18.802;2023-04-15T11:41:07;96722.30;;;15.84;68.76
32492;BME280;20605;49.742;18.802;2023-04-15T11:43:33;96721.24;;;16.19;69.53
32492;BME280;20605;49.742;18.802;2023-04-15T11:46:01;96717.66;;;16.49;68.37
32492;BME280;20605;49.742;18.802;2023-04-15T11:48:30;96718.00;;;16.69;67.97
32492;BME280;20605;49.742;18.802;2023-04-15T11:51:00;96721.61;;;16.83;66.58
32492;BME280;20605;49.742;18.802;2023-04-15T11:56:21;96722.80;;;16.70;66.20
32492;BME280;20605;49.742;18.802;2023-04-15T11:58:51;96720.02;;;16.81;66.25
32492;BME280;20605;49.742;18.802;2023-04-15T12:01:17;96728.02;;;16.82;65.60
32492;BME280;20605;49.742;18.802;2023-04-15T12:03:47;96725.40;;;16.96;65.30
32492;BME280;20605;49.742;18.802;2023-04-15T12:06:14;96724.71;;;16.82;63.62
32492;BME280;20605;49.742;18.802;2023-04-15T12:11:33;96723.35;;;16.65;64.46
32492;BME280;20605;49.742;18.802;2023-04-15T12:16:52;96724.80;;;16.83;64.99
32492;BME280;20605;49.742;18.802;2023-04-15T12:19:28;96724.91;;;16.91;64.09
32492;BME280;20605;49.742;18.802;2023-04-15T12:22:00;96726.59;;;16.92;63.54
32492;BME280;20605;49.742;18.802;2023-04-15T12:24:27;96725.25;;;17.03;64.39
32492;BME280;20605;49.742;18.802;2023-04-15T12:26:55;96726.46;;;17.17;63.89
32492;BME280;20605;49.742;18.802;2023-04-15T12:29:26;96722.48;;;17.28;64.42
32492;BME280;20605;49.742;18.802;2023-04-15T12:31:57;96724.79;;;17.34;64.15
32492;BME280;20605;49.742;18.802;2023-04-15T12:34:28;96723.21;;;17.39;64.10
32492;BME280;20605;49.742;18.802;2023-04-15T12:36:55;96724.13;;;17.48;63.58
32492;BME280;20605;49.742;18.802;2023-04-15T12:39:26;96717.27;;;17.41;62.62
32492;BME280;20605;49.742;18.802;2023-04-15T12:41:53;96716.83;;;17.28;61.65
32492;BME280;20605;49.742;18.802;2023-04-15T12:44:20;96715.27;;;17.05;62.20
32492;BME280;20605;49.742;18.802;2023-04-15T12:46:47;96713.98;;;16.99;62.66
32492;BME280;20605;49.742;18.802;2023-04-15T12:49:13;96716.55;;;16.83;63.09
32492;BME280;20605;49.742;18.802;2023-04-15T12:51:41;96717.73;;;16.79;63.63
32492;BME280;20605;49.742;18.802;2023-04-15T12:54:07;96716.92;;;16.78;63.92
32492;BME280;20605;49.742;18.802;2023-04-15T12:56:33;96722.33;;;16.86;64.47
32492;BME280;20605;49.742;18.802;2023-04-15T12:59:00;96721.27;;;16.79;64.35
32492;BME280;20605;49.742;18.802;2023-04-15T13:01:25;96723.77;;;16.71;65.07
32492;BME280;20605;49.742;18.802;2023-04-15T13:03:51;96729.60;;;16.66;64.89
32492;BME280;20605;49.742;18.802;2023-04-15T13:06:17;96729.30;;;16.62;64.93
32492;BME280;20605;49.742;18.802;2023-04-15T13:08:43;96732.83;;;16.52;65.34
32492;BME280;20605;49.742;18.802;2023-04-15T13:11:16;96735.15;;;16.37;65.54
32492;BME280;20605;49.742;18.802;2023-04-15T13:13:42;96738.70;;;16.22;65.53
32492;BME280;20605;49.742;18.802;2023-04-15T13:16:08;96739.40;;;16.10;65.27
32492;BME280;20605;49.742;18.802;2023-04-15T13:18:34;96744.27;;;16.00;65.74
32492;BME280;20605;49.742;18.802;2023-04-15T13:21:01;96748.85;;;15.90;65.51
32492;BME280;20605;49.742;18.802;2023-04-15T13:23:27;96751.77;;;15.78;65.25
32492;BME280;20605;49.742;18.802;2023-04-15T13:25:53;96756.05;;;15.59;65.10
32492;BME280;20605;49.742;18.802;2023-04-15T13:28:19;96761.11;;;15.46;66.01
32492;BME280;20605;49.742;18.802;2023-04-15T13:30:45;96767.14;;;15.40;66.46
32492;BME280;20605;49.742;18.802;2023-04-15T13:33:13;96772.58;;;15.29;66.61